sensor_id;sensor_type;location;lat;lon;timestamp;pressure;altitude;pressure_sealevel;temperature;humidity
15314;BME280;7757;52.626;4.746;2022-10-19T00:00:45;102841.16;;;18.64;63.00
15314;BME280;7757;52.626;4.746;2022-10-19T00:03:12;102838.94;;;19.24;62.46
15314;BME280;7757;52.626;4.746;2022-10-19T00:05:38;102847.78;;;19.12;62.10
15314;BME280;7757;52.626;4.746;2022-10-19T00:08:05;102840.94;;;19.16;62.93
15314;BME280;7757;52.626;4.746;2022-10-19T00:10:32;102840.75;;;18.81;62.93
15314;BME280;7757;52.626;4.746;2022-10-19T00:13:00;102839.81;;;19.31;62.59
15314;BME280;7757;52.626;4.746;2022-10-19T00:15:27;102829.03;;;19.17;62.42
15314;BME280;7757;52.626;4.746;2022-10-19T00:17:54;102841.44;;;19.26;62.54
15314;BME280;7757;52.626;4.746;2022-10-19T00:20:21;102829.69;;;19.40;62.29
15314;BME280;7757;52.626;4.746;2022-10-19T00:22:48;102826.44;;;19.30;62.54
15314;BME280;7757;52.626;4.746;2022-10-19T00:25:16;102838.06;;;19.03;61.68
15314;BME280;7757;52.626;4.746;2022-10-19T00:27:42;102837.00;;;19.18;62.31
15314;BME280;7757;52.626;4.746;2022-10-19T00:30:10;102813.66;;;19.24;62.52
15314;BME280;7757;52.626;4.746;2022-10-19T00:32:37;102827.53;;;19.35;62.45
15314;BME280;7757;52.626;4.746;2022-10-19T00:35:04;102814.50;;;19.24;62.39
15314;BME280;7757;52.626;4.746;2022-10-19T00:37:31;102820.25;;;19.36;62.09
15314;BME280;7757;52.626;4.746;2022-10-19T00:39:57;102808.56;;;19.14;61.45
15314;BME280;7757;52.626;4.746;2022-10-19T00:42:24;102810.34;;;18.65;63.42
15314;BME280;7757;52.626;4.746;2022-10-19T00:45:13;102814.25;;;18.98;62.84
15314;BME280;7757;52.626;4.746;2022-10-19T00:47:40;102826.38;;;19.02;62.57
15314;BME280;7757;52.626;4.746;2022-10-19T00:50:08;102820.44;;;19.13;62.34
15314;BME280;7757;52.626;4.746;2022-10-19T00:52:34;102814.56;;;18.88;61.89
15314;BME280;7757;52.626;4.746;2022-10-19T00:55:01;102811.22;;;18.72;61.78
15314;BME280;7757;52.626;4.746;2022-10-19T00:57:30;102827.53;;;19.14;62.60
15314;BME280;7757;52.626;4.746;2022-10-19T00:59:59;102828.91;;;19.25;62.08
15314;BME280;7757;52.626;4.746;2022-10-19T01:02:27;102830.41;;;19.27;61.97
15314;BME280;7757;52.626;4.746;2022-10-19T01:04:54;102831.44;;;19.26;61.99
15314;BME280;7757;52.626;4.746;2022-10-19T01:07:22;102820.78;;;19.25;61.51
15314;BME280;7757;52.626;4.746;2022-10-19T01:09:50;102819.94;;;19.24;62.01
15314;BME280;7757;52.626;4.746;2022-10-19T01:12:26;102819.94;;;19.24;61.87
15314;BME280;7757;52.626;4.746;2022-10-19T01:15:07;102813.84;;;19.22;61.92
15314;BME280;7757;52.626;4.746;2022-10-19T01:17:47;102821.81;;;19.24;61.66
15314;BME280;7757;52.626;4.746;2022-10-19T01:20:32;102818.47;;;19.22;61.82
15314;BME280;7757;52.626;4.746;2022-10-19T01:23:20;102815.75;;;19.22;62.01
15314;BME280;7757;52.626;4.746;2022-10-19T01:26:03;102809.41;;;19.15;61.86
15314;BME280;7757;52.626;4.746;2022-10-19T01:28:44;102821.56;;;19.19;61.72
15314;BME280;7757;52.626;4.746;2022-10-19T01:31:23;102821.56;;;19.19;61.63
15314;BME280;7757;52.626;4.746;2022-10-19T01:33:58;102815.06;;;19.20;61.54
15314;BME280;7757;52.626;4.746;2022-10-19T01:36:31;102816.13;;;19.19;61.51
15314;BME280;7757;52.626;4.746;2022-10-19T01:39:08;102815.28;;;19.18;61.61
15314;BME280;7757;52.626;4.746;2022-10-19T01:41:42;102813.59;;;19.17;61.32
15314;BME280;7757;52.626;4.746;2022-10-19T01:44:15;102825.28;;;19.18;61.54
15314;BME280;7757;52.626;4.746;2022-10-19T01:46:49;102815.66;;;19.15;61.18
15314;BME280;7757;52.626;4.746;2022-10-19T01:49:19;102810.44;;;19.14;61.47
15314;BME280;7757;52.626;4.746;2022-10-19T01:51:51;102806.06;;;19.13;61.31
15314;BME280;7757;52.626;4.746;2022-10-19T01:54:21;102807.94;;;19.12;61.23
15314;BME280;7757;52.626;4.746;2022-10-19T01:56:51;102806.22;;;19.11;61.15
15314;BME280;7757;52.626;4.746;2022-10-19T01:59:20;102806.44;;;19.10;61.20
15314;BME280;7757;52.626;4.746;2022-10-19T02:01:50;102803.06;;;19.08;61.29
15314;BME280;7757;52.626;4.746;2022-10-19T02:04:19;102791.41;;;19.07;61.15
15314;BME280;7757;52.626;4.746;2022-10-19T02:06:47;102796.16;;;19.05;60.99
15314;BME280;7757;52.626;4.746;2022-10-19T02:09:16;102789.88;;;19.05;61.09
15314;BME280;7757;52.626;4.746;2022-10-19T02:11:45;102800.31;;;19.01;60.94
15314;BME280;7757;52.626;4.746;2022-10-19T02:14:16;102799.66;;;18.99;61.04
15314;BME280;7757;52.626;4.746;2022-10-19T02:16:46;102784.22;;;19.00;60.96
15314;BME280;7757;52.626;4.746;2022-10-19T02:19:17;102784.44;;;18.98;60.94
15314;BME280;7757;52.626;4.746;2022-10-19T02:21:46;102786.94;;;19.00;60.73
15314;BME280;7757;52.626;4.746;2022-10-19T02:24:12;102782.53;;;18.99;60.95
15314;BME280;7757;52.626;4.746;2022-10-19T02:26:39;102782.53;;;18.99;60.88
15314;BME280;7757;52.626;4.746;2022-10-19T02:29:07;102783.59;;;18.98;60.87
15314;BME280;7757;52.626;4.746;2022-10-19T02:31:35;102783.13;;;18.94;60.98
15314;BME280;7757;52.626;4.746;2022-10-19T02:34:02;102785.84;;;18.94;61.03
15314;BME280;7757;52.626;4.746;2022-10-19T02:36:30;102786.84;;;18.93;60.74
15314;BME280;7757;52.626;4.746;2022-10-19T02:38:56;102781.19;;;18.88;60.94
15314;BME280;7757;52.626;4.746;2022-10-19T02:41:26;102780.16;;;18.89;60.96
15314;BME280;7757;52.626;4.746;2022-10-19T02:44:00;102778.47;;;18.88;60.78
15314;BME280;7757;52.626;4.746;2022-10-19T02:46:31;102773.25;;;18.86;61.13
15314;BME280;7757;52.626;4.746;2022-10-19T02:49:00;102769.88;;;18.84;60.73
15314;BME280;7757;52.626;4.746;2022-10-19T02:51:32;102755.69;;;18.82;60.74
15314;BME280;7757;52.626;4.746;2022-10-19T02:53:59;102759.25;;;18.83;60.76
15314;BME280;7757;52.626;4.746;2022-10-19T02:56:25;102769.25;;;18.82;60.97
15314;BME280;7757;52.626;4.746;2022-10-19T02:58:52;102764.84;;;18.81;60.52
15314;BME280;7757;52.626;4.746;2022-10-19T03:01:19;102772.34;;;18.79;60.78
15314;BME280;7757;52.626;4.746;2022-10-19T03:03:46;102771.03;;;18.75;60.72
15314;BME280;7757;52.626;4.746;2022-10-19T03:06:13;102772.72;;;18.76;60.92
15314;BME280;7757;52.626;4.746;2022-10-19T03:08:41;102773.56;;;18.77;60.62
15314;BME280;7757;52.626;4.746;2022-10-19T03:11:07;102778.53;;;18.73;61.28
15314;BME280;7757;52.626;4.746;2022-10-19T03:13:34;102773.75;;;18.75;60.85
15314;BME280;7757;52.626;4.746;2022-10-19T03:16:08;102768.72;;;18.72;60.55
15314;BME280;7757;52.626;4.746;2022-10-19T03:18:35;102764.97;;;18.73;60.77
15314;BME280;7757;52.626;4.746;2022-10-19T03:21:04;102763.50;;;18.71;60.46
15314;BME280;7757;52.626;4.746;2022-10-19T03:23:31;102770.78;;;18.70;60.75
15314;BME280;7757;52.626;4.746;2022-10-19T03:25:59;102767.22;;;18.70;60.94
15314;BME280;7757;52.626;4.746;2022-10-19T03:28:25;102751.16;;;18.68;60.59
15314;BME280;7757;52.626;4.746;2022-10-19T03:30:52;102754.44;;;18.64;60.77
15314;BME280;7757;52.626;4.746;2022-10-19T03:33:18;102753.22;;;18.66;60.78
15314;BME280;7757;52.626;4.746;2022-10-19T03:35:45;102758.63;;;18.66;60.52
15314;BME280;7757;52.626;4.746;2022-10-19T03:38:11;102748.19;;;18.63;60.59
15314;BME280;7757;52.626;4.746;2022-10-19T03:40:38;102747.16;;;18.64;60.19
15314;BME280;7757;52.626;4.746;2022-10-19T03:43:06;102745.66;;;18.62;60.71
15314;BME280;7757;52.626;4.746;2022-10-19T03:45:32;102744.19;;;18.59;60.41
15314;BME280;7757;52.626;4.746;2022-10-19T03:47:59;102750.84;;;18.57;60.58
15314;BME280;7757;52.626;4.746;2022-10-19T03:50:26;102748.13;;;18.57;60.50
15314;BME280;7757;52.626;4.746;2022-10-19T03:52:54;102750.00;;;18.56;60.01
15314;BME280;7757;52.626;4.746;2022-10-19T03:55:20;102748.13;;;18.57;60.10
15314;BME280;7757;52.626;4.746;2022-10-19T03:57:47;102741.03;;;18.56;60.49
15314;BME280;7757;52.626;4.746;2022-10-19T04:00:15;102740.38;;;18.54;60.12
15314;BME280;7757;52.626;4.746;2022-10-19T04:02:42;102743.91;;;18.54;60.29
15314;BME280;7757;52.626;4.746;2022-10-19T04:05:09;102744.50;;;18.50;60.56
15314;BME280;7757;52.626;4.746;2022-10-19T04:07:35;102746.81;;;18.53;60.59
15314;BME280;7757;52.626;4.746;2022-10-19T04:10:02;102748.69;;;18.52;60.12
15314;BME280;7757;52.626;4.746;2022-10-19T04:12:28;102742.41;;;18.52;60.41
15314;BME280;7757;52.626;4.746;2022-10-19T04:14:55;102748.69;;;18.52;60.46
15314;BME280;7757;52.626;4.746;2022-10-19T04:17:24;102744.84;;;18.47;60.11
15314;BME280;7757;52.626;4.746;2022-10-19T04:19:50;102743.81;;;18.48;60.09
15314;BME280;7757;52.626;4.746;2022-10-19T04:22:17;102748.94;;;18.42;60.07
15314;BME280;7757;52.626;4.746;2022-10-19T04:24:43;102740.81;;;18.42;59.96
15314;BME280;7757;52.626;4.746;2022-10-19T04:27:10;102743.47;;;18.36;59.92
15314;BME280;7757;52.626;4.746;2022-10-19T04:29:36;102750.19;;;18.40;60.21
15314;BME280;7757;52.626;4.746;2022-10-19T04:32:03;102745.97;;;18.37;59.91
15314;BME280;7757;52.626;4.746;2022-10-19T04:34:31;102737.00;;;18.37;60.11
15314;BME280;7757;52.626;4.746;2022-10-19T04:36:58;102742.44;;;18.37;59.93
15314;BME280;7757;52.626;4.746;2022-10-19T04:39:25;102739.09;;;18.35;59.94
15314;BME280;7757;52.626;4.746;2022-10-19T04:41:52;102738.25;;;18.34;59.98
15314;BME280;7757;52.626;4.746;2022-10-19T04:44:18;102739.25;;;18.33;60.11
15314;BME280;7757;52.626;4.746;2022-10-19T04:46:45;102740.09;;;18.34;60.03
15314;BME280;7757;52.626;4.746;2022-10-19T04:49:11;102740.78;;;18.36;60.05
15314;BME280;7757;52.626;4.746;2022-10-19T04:51:39;102735.28;;;18.29;60.04
15314;BME280;7757;52.626;4.746;2022-10-19T04:54:06;102742.56;;;18.29;60.31
15314;BME280;7757;52.626;4.746;2022-10-19T04:56:32;102734.53;;;18.21;60.72
15314;BME280;7757;52.626;4.746;2022-10-19T04:58:59;102732.56;;;18.29;60.03
15314;BME280;7757;52.626;4.746;2022-10-19T05:01:28;102734.66;;;17.98;61.30
15314;BME280;7757;52.626;4.746;2022-10-19T05:03:57;102728.56;;;17.38;61.14
15314;BME280;7757;52.626;4.746;2022-10-19T05:06:24;102719.06;;;17.04;62.71
15314;BME280;7757;52.626;4.746;2022-10-19T05:08:52;102718.94;;;16.98;62.49
15314;BME280;7757;52.626;4.746;2022-10-19T05:11:19;102717.19;;;17.57;61.47
15314;BME280;7757;52.626;4.746;2022-10-19T05:13:46;102716.56;;;17.69;61.41
15314;BME280;7757;52.626;4.746;2022-10-19T05:16:15;102724.69;;;17.55;62.53
15314;BME280;7757;52.626;4.746;2022-10-19T05:18:45;102725.13;;;18.02;61.06
15314;BME280;7757;52.626;4.746;2022-10-19T05:21:12;102735.00;;;18.10;60.70
15314;BME280;7757;52.626;4.746;2022-10-19T05:23:40;102742.09;;;18.11;60.36
15314;BME280;7757;52.626;4.746;2022-10-19T05:26:11;102739.13;;;18.20;60.49
15314;BME280;7757;52.626;4.746;2022-10-19T05:28:37;102739.03;;;18.14;60.86
15314;BME280;7757;52.626;4.746;2022-10-19T05:31:06;102744.69;;;18.19;60.26
15314;BME280;7757;52.626;4.746;2022-10-19T05:33:33;102740.81;;;17.92;61.53
15314;BME280;7757;52.626;4.746;2022-10-19T05:36:12;102736.41;;;18.20;61.07
15314;BME280;7757;52.626;4.746;2022-10-19T05:38:39;102739.19;;;18.27;60.69
15314;BME280;7757;52.626;4.746;2022-10-19T05:41:06;102731.47;;;18.24;60.92
15314;BME280;7757;52.626;4.746;2022-10-19T05:43:34;102727.53;;;18.26;60.66
15314;BME280;7757;52.626;4.746;2022-10-19T05:46:05;102733.91;;;18.40;60.59
15314;BME280;7757;52.626;4.746;2022-10-19T05:48:32;102733.06;;;18.39;60.51
15314;BME280;7757;52.626;4.746;2022-10-19T05:51:00;102739.94;;;18.35;60.38
15314;BME280;7757;52.626;4.746;2022-10-19T05:53:27;102740.78;;;18.36;60.83
15314;BME280;7757;52.626;4.746;2022-10-19T05:55:54;102743.53;;;18.42;60.31
15314;BME280;7757;52.626;4.746;2022-10-19T05:58:21;102741.66;;;18.43;60.77
15314;BME280;7757;52.626;4.746;2022-10-19T06:00:54;102736.25;;;18.43;60.77
15314;BME280;7757;52.626;4.746;2022-10-19T06:03:21;102738.94;;;18.58;60.61
15314;BME280;7757;52.626;4.746;2022-10-19T06:05:48;102740.00;;;18.57;60.43
15314;BME280;7757;52.626;4.746;2022-10-19T06:08:15;102738.16;;;18.28;60.94
15314;BME280;7757;52.626;4.746;2022-10-19T06:10:43;102736.28;;;18.28;61.43
15314;BME280;7757;52.626;4.746;2022-10-19T06:13:10;102736.72;;;18.47;60.65
15314;BME280;7757;52.626;4.746;2022-10-19T06:15:38;102747.69;;;18.38;60.47
15314;BME280;7757;52.626;4.746;2022-10-19T06:18:07;102745.97;;;18.37;61.19
15314;BME280;7757;52.626;4.746;2022-10-19T06:20:34;102753.41;;;18.65;61.38
15314;BME280;7757;52.626;4.746;2022-10-19T06:23:01;102749.88;;;18.85;60.79
15314;BME280;7757;52.626;4.746;2022-10-19T06:25:29;102747.88;;;18.73;60.80
15314;BME280;7757;52.626;4.746;2022-10-19T06:27:56;102740.09;;;16.41;62.47
15314;BME280;7757;52.626;4.746;2022-10-19T06:30:23;102740.09;;;16.94;64.27
15314;BME280;7757;52.626;4.746;2022-10-19T06:32:50;102744.09;;;17.21;64.20
15314;BME280;7757;52.626;4.746;2022-10-19T06:35:18;102746.19;;;17.48;62.85
15314;BME280;7757;52.626;4.746;2022-10-19T06:37:44;102752.38;;;17.19;61.57
15314;BME280;7757;52.626;4.746;2022-10-19T06:40:11;102746.97;;;16.82;63.57
15314;BME280;7757;52.626;4.746;2022-10-19T06:42:38;102743.00;;;16.70;64.25
15314;BME280;7757;52.626;4.746;2022-10-19T06:45:06;102747.53;;;17.15;62.54
15314;BME280;7757;52.626;4.746;2022-10-19T06:47:33;102738.38;;;17.53;61.93
15314;BME280;7757;52.626;4.746;2022-10-19T06:50:00;102744.31;;;16.43;60.61
15314;BME280;7757;52.626;4.746;2022-10-19T06:52:28;102731.88;;;17.25;62.44
15314;BME280;7757;52.626;4.746;2022-10-19T06:54:54;102724.75;;;16.41;63.76
15314;BME280;7757;52.626;4.746;2022-10-19T06:57:21;102729.66;;;16.38;62.78
15314;BME280;7757;52.626;4.746;2022-10-19T06:59:47;102723.75;;;16.03;62.67
15314;BME280;7757;52.626;4.746;2022-10-19T07:02:14;102729.25;;;16.49;62.64
15314;BME280;7757;52.626;4.746;2022-10-19T07:04:41;102728.06;;;16.21;63.33
15314;BME280;7757;52.626;4.746;2022-10-19T07:07:08;102720.59;;;16.61;63.27
15314;BME280;7757;52.626;4.746;2022-10-19T07:09:36;102715.31;;;16.68;62.11
15314;BME280;7757;52.626;4.746;2022-10-19T07:12:02;102702.19;;;16.57;61.16
15314;BME280;7757;52.626;4.746;2022-10-19T07:14:29;102704.75;;;16.58;61.77
15314;BME280;7757;52.626;4.746;2022-10-19T07:16:56;102712.25;;;16.09;60.54
15314;BME280;7757;52.626;4.746;2022-10-19T07:19:24;102706.63;;;16.50;61.58
15314;BME280;7757;52.626;4.746;2022-10-19T07:21:51;102705.84;;;15.72;61.25
15314;BME280;7757;52.626;4.746;2022-10-19T07:24:18;102717.66;;;16.40;61.17
15314;BME280;7757;52.626;4.746;2022-10-19T07:26:46;102714.03;;;16.25;62.02
15314;BME280;7757;52.626;4.746;2022-10-19T07:29:13;102713.69;;;16.51;59.50
15314;BME280;7757;52.626;4.746;2022-10-19T07:31:39;102722.31;;;15.77;62.50
15314;BME280;7757;52.626;4.746;2022-10-19T07:34:11;102717.06;;;16.22;61.50
15314;BME280;7757;52.626;4.746;2022-10-19T07:36:38;102723.22;;;16.69;61.55
15314;BME280;7757;52.626;4.746;2022-10-19T07:39:10;102728.34;;;16.64;60.10
15314;BME280;7757;52.626;4.746;2022-10-19T07:41:38;102723.44;;;17.05;61.48
15314;BME280;7757;52.626;4.746;2022-10-19T07:44:05;102731.06;;;17.02;60.06
15314;BME280;7757;52.626;4.746;2022-10-19T07:46:32;102731.22;;;15.93;60.62
15314;BME280;7757;52.626;4.746;2022-10-19T07:49:03;102741.72;;;16.58;60.86
15314;BME280;7757;52.626;4.746;2022-10-19T07:51:29;102747.91;;;16.89;59.78
15314;BME280;7757;52.626;4.746;2022-10-19T07:53:56;102733.38;;;16.67;60.83
15314;BME280;7757;52.626;4.746;2022-10-19T07:56:24;102723.88;;;16.71;60.60
15314;BME280;7757;52.626;4.746;2022-10-19T07:58:53;102736.81;;;16.61;60.89
15314;BME280;7757;52.626;4.746;2022-10-19T08:01:23;102731.88;;;15.95;61.34
15314;BME280;7757;52.626;4.746;2022-10-19T08:03:51;102733.59;;;16.81;60.12
15314;BME280;7757;52.626;4.746;2022-10-19T08:06:18;102725.53;;;16.19;59.22
15314;BME280;7757;52.626;4.746;2022-10-19T08:08:46;102719.44;;;16.25;60.05
15314;BME280;7757;52.626;4.746;2022-10-19T08:11:16;102718.50;;;16.10;59.85
15314;BME280;7757;52.626;4.746;2022-10-19T08:13:42;102721.91;;;16.88;59.87
15314;BME280;7757;52.626;4.746;2022-10-19T08:16:22;102739.84;;;16.50;59.87
15314;BME280;7757;52.626;4.746;2022-10-19T08:18:49;102735.38;;;16.73;60.86
15314;BME280;7757;52.626;4.746;2022-10-19T08:21:16;102734.84;;;16.47;60.78
15314;BME280;7757;52.626;4.746;2022-10-19T08:23:42;102732.88;;;16.87;59.32
15314;BME280;7757;52.626;4.746;2022-10-19T08:26:09;102737.38;;;17.17;57.86
15314;BME280;7757;52.626;4.746;2022-10-19T08:28:36;102739.50;;;17.21;59.68
15314;BME280;7757;52.626;4.746;2022-10-19T08:31:09;102738.81;;;17.05;59.12
15314;BME280;7757;52.626;4.746;2022-10-19T08:33:37;102739.59;;;17.13;58.49
15314;BME280;7757;52.626;4.746;2022-10-19T08:36:04;102739.06;;;17.18;59.49
15314;BME280;7757;52.626;4.746;2022-10-19T08:38:32;102737.66;;;17.22;59.23
15314;BME280;7757;52.626;4.746;2022-10-19T08:41:05;102729.03;;;17.41;59.31
15314;BME280;7757;52.626;4.746;2022-10-19T08:43:37;102725.53;;;17.55;58.33
15314;BME280;7757;52.626;4.746;2022-10-19T08:46:13;102723.16;;;17.00;58.62
15314;BME280;7757;52.626;4.746;2022-10-19T08:48:44;102718.63;;;17.30;58.87
15314;BME280;7757;52.626;4.746;2022-10-19T08:51:11;102719.25;;;17.84;57.55
15314;BME280;7757;52.626;4.746;2022-10-19T08:53:44;102717.16;;;17.27;58.22
15314;BME280;7757;52.626;4.746;2022-10-19T08:56:20;102715.78;;;17.46;57.74
15314;BME280;7757;52.626;4.746;2022-10-19T08:58:57;102706.88;;;17.08;58.14
15314;BME280;7757;52.626;4.746;2022-10-19T09:01:37;102714.19;;;17.52;57.84
15314;BME280;7757;52.626;4.746;2022-10-19T09:04:11;102708.59;;;17.39;58.28
15314;BME280;7757;52.626;4.746;2022-10-19T09:06:47;102712.31;;;17.38;57.79
15314;BME280;7757;52.626;4.746;2022-10-19T09:09:18;102701.81;;;17.05;55.50
15314;BME280;7757;52.626;4.746;2022-10-19T09:11:48;102706.28;;;16.76;56.99
15314;BME280;7757;52.626;4.746;2022-10-19T09:14:20;102694.75;;;16.82;58.14
15314;BME280;7757;52.626;4.746;2022-10-19T09:16:48;102694.19;;;17.09;58.05
15314;BME280;7757;52.626;4.746;2022-10-19T09:19:21;102689.34;;;17.19;56.50
15314;BME280;7757;52.626;4.746;2022-10-19T09:21:53;102696.63;;;17.18;57.53
15314;BME280;7757;52.626;4.746;2022-10-19T09:24:27;102684.97;;;17.03;57.60
15314;BME280;7757;52.626;4.746;2022-10-19T09:26:57;102674.72;;;17.43;56.54
15314;BME280;7757;52.626;4.746;2022-10-19T09:29:28;102686.38;;;16.77;57.64
15314;BME280;7757;52.626;4.746;2022-10-19T09:31:58;102676.78;;;17.26;56.38
15314;BME280;7757;52.626;4.746;2022-10-19T09:34:29;102675.06;;;17.10;56.25
15314;BME280;7757;52.626;4.746;2022-10-19T09:36:58;102680.19;;;16.37;56.57
15314;BME280;7757;52.626;4.746;2022-10-19T09:39:26;102673.72;;;16.92;56.77
15314;BME280;7757;52.626;4.746;2022-10-19T09:41:55;102678.38;;;16.30;56.92
15314;BME280;7757;52.626;4.746;2022-10-19T09:44:23;102674.78;;;16.68;57.15
15314;BME280;7757;52.626;4.746;2022-10-19T09:46:53;102660.59;;;16.89;56.37
15314;BME280;7757;52.626;4.746;2022-10-19T09:49:39;102670.81;;;16.25;56.88
15314;BME280;7757;52.626;4.746;2022-10-19T09:52:22;102672.84;;;16.54;57.68
15314;BME280;7757;52.626;4.746;2022-10-19T09:54:58;102672.91;;;16.91;57.56
15314;BME280;7757;52.626;4.746;2022-10-19T09:57:26;102671.53;;;17.24;57.43
15314;BME280;7757;52.626;4.746;2022-10-19T09:59:53;102678.44;;;15.91;60.86
15314;BME280;7757;52.626;4.746;2022-10-19T10:02:27;102683.03;;;16.13;58.33
15314;BME280;7757;52.626;4.746;2022-10-19T10:05:03;102677.72;;;16.58;58.59
15314;BME280;7757;52.626;4.746;2022-10-19T10:07:33;102673.53;;;16.56;58.60
15314;BME280;7757;52.626;4.746;2022-10-19T10:10:00;102669.13;;;16.24;58.80
15314;BME280;7757;52.626;4.746;2022-10-19T10:12:27;102663.56;;;16.26;57.90
15314;BME280;7757;52.626;4.746;2022-10-19T10:14:54;102658.72;;;16.44;58.04
15314;BME280;7757;52.626;4.746;2022-10-19T10:17:24;102664.75;;;16.77;57.57
15314;BME280;7757;52.626;4.746;2022-10-19T10:20:16;102666.47;;;16.47;57.97
15314;BME280;7757;52.626;4.746;2022-10-19T10:22:51;102667.66;;;17.27;56.17
15314;BME280;7757;52.626;4.746;2022-10-19T10:25:24;102660.28;;;17.36;56.22
15314;BME280;7757;52.626;4.746;2022-10-19T10:27:57;102661.22;;;17.57;56.08
15314;BME280;7757;52.626;4.746;2022-10-19T10:30:26;102663.75;;;17.44;55.38
15314;BME280;7757;52.626;4.746;2022-10-19T10:32:54;102657.94;;;17.33;54.62
15314;BME280;7757;52.626;4.746;2022-10-19T10:35:26;102659.94;;;17.01;56.31
15314;BME280;7757;52.626;4.746;2022-10-19T10:38:05;102661.22;;;16.76;56.80
15314;BME280;7757;52.626;4.746;2022-10-19T10:40:33;102659.97;;;17.30;54.91
15314;BME280;7757;52.626;4.746;2022-10-19T10:43:02;102655.88;;;17.20;54.90
15314;BME280;7757;52.626;4.746;2022-10-19T10:45:31;102643.28;;;17.12;54.68
15314;BME280;7757;52.626;4.746;2022-10-19T10:48:16;102638.78;;;16.90;55.41
15314;BME280;7757;52.626;4.746;2022-10-19T10:50:47;102640.31;;;16.47;55.91
15314;BME280;7757;52.626;4.746;2022-10-19T10:53:38;102640.06;;;16.80;57.06
15314;BME280;7757;52.626;4.746;2022-10-19T10:56:20;102626.69;;;16.63;57.91
15314;BME280;7757;52.626;4.746;2022-10-19T10:58:49;102640.19;;;17.01;56.74
15314;BME280;7757;52.626;4.746;2022-10-19T11:01:22;102621.44;;;16.39;56.75
15314;BME280;7757;52.626;4.746;2022-10-19T11:03:53;102620.50;;;16.32;57.77
15314;BME280;7757;52.626;4.746;2022-10-19T11:06:24;102611.44;;;16.25;56.99
15314;BME280;7757;52.626;4.746;2022-10-19T11:08:57;102589.81;;;16.48;58.26
15314;BME280;7757;52.626;4.746;2022-10-19T11:11:27;102585.47;;;16.99;55.63
15314;BME280;7757;52.626;4.746;2022-10-19T11:13:58;102585.56;;;17.20;56.75
15314;BME280;7757;52.626;4.746;2022-10-19T11:16:28;102572.78;;;17.28;55.95
15314;BME280;7757;52.626;4.746;2022-10-19T11:18:59;102574.28;;;17.31;55.52
15314;BME280;7757;52.626;4.746;2022-10-19T11:21:33;102570.19;;;17.35;55.39
15314;BME280;7757;52.626;4.746;2022-10-19T11:24:08;102569.53;;;16.52;56.83
15314;BME280;7757;52.626;4.746;2022-10-19T11:26:46;102563.34;;;16.81;56.47
15314;BME280;7757;52.626;4.746;2022-10-19T11:29:32;102555.47;;;17.23;55.39
15314;BME280;7757;52.626;4.746;2022-10-19T11:32:03;102550.41;;;16.61;56.26
15314;BME280;7757;52.626;4.746;2022-10-19T11:34:46;102538.19;;;16.95;55.94
15314;BME280;7757;52.626;4.746;2022-10-19T11:37:24;102543.69;;;16.57;56.80
15314;BME280;7757;52.626;4.746;2022-10-19T11:40:09;102526.09;;;16.53;57.60
15314;BME280;7757;52.626;4.746;2022-10-19T11:42:48;102525.25;;;16.90;56.42
15314;BME280;7757;52.626;4.746;2022-10-19T11:45:26;102519.34;;;16.20;58.13
15314;BME280;7757;52.626;4.746;2022-10-19T11:48:17;102502.13;;;16.58;56.67
15314;BME280;7757;52.626;4.746;2022-10-19T11:50:53;102513.97;;;16.72;56.62
15314;BME280;7757;52.626;4.746;2022-10-19T11:53:27;102497.81;;;16.49;57.47
15314;BME280;7757;52.626;4.746;2022-10-19T11:56:00;102496.09;;;16.86;56.24
15314;BME280;7757;52.626;4.746;2022-10-19T11:58:41;102487.22;;;16.62;55.62
15314;BME280;7757;52.626;4.746;2022-10-19T12:01:20;102493.03;;;16.89;56.92
15314;BME280;7757;52.626;4.746;2022-10-19T12:04:00;102482.19;;;16.59;56.91
15314;BME280;7757;52.626;4.746;2022-10-19T12:06:35;102484.31;;;17.22;56.14
15314;BME280;7757;52.626;4.746;2022-10-19T12:09:19;102473.53;;;17.08;55.80
15314;BME280;7757;52.626;4.746;2022-10-19T12:11:58;102464.28;;;17.17;56.38
15314;BME280;7757;52.626;4.746;2022-10-19T12:14:31;102461.09;;;17.13;55.60
15314;BME280;7757;52.626;4.746;2022-10-19T12:17:04;102458.53;;;16.91;56.49
15314;BME280;7757;52.626;4.746;2022-10-19T12:19:35;102455.13;;;16.45;57.56
15314;BME280;7757;52.626;4.746;2022-10-19T12:22:06;102451.78;;;16.43;57.09
15314;BME280;7757;52.626;4.746;2022-10-19T12:24:40;102440.84;;;16.73;57.33
15314;BME280;7757;52.626;4.746;2022-10-19T12:27:10;102436.94;;;16.61;57.63
15314;BME280;7757;52.626;4.746;2022-10-19T12:29:39;102436.97;;;16.53;57.73
15314;BME280;7757;52.626;4.746;2022-10-19T12:32:11;102434.13;;;16.69;57.73
15314;BME280;7757;52.626;4.746;2022-10-19T12:34:45;102424.66;;;16.59;56.64
15314;BME280;7757;52.626;4.746;2022-10-19T12:37:21;102415.44;;;16.16;59.33
15314;BME280;7757;52.626;4.746;2022-10-19T12:39:56;102408.84;;;16.92;56.96
15314;BME280;7757;52.626;4.746;2022-10-19T12:42:28;102412.16;;;16.58;57.94
15314;BME280;7757;52.626;4.746;2022-10-19T12:45:09;102426.16;;;16.53;56.56
15314;BME280;7757;52.626;4.746;2022-10-19T12:47:39;102412.63;;;16.61;57.15
15314;BME280;7757;52.626;4.746;2022-10-19T12:50:06;102403.91;;;16.95;56.77
15314;BME280;7757;52.626;4.746;2022-10-19T12:52:39;102407.69;;;16.80;56.74
15314;BME280;7757;52.626;4.746;2022-10-19T12:55:28;102401.84;;;17.12;56.11
15314;BME280;7757;52.626;4.746;2022-10-19T12:58:04;102392.56;;;16.85;56.71
15314;BME280;7757;52.626;4.746;2022-10-19T13:00:33;102392.75;;;16.25;57.46
15314;BME280;7757;52.626;4.746;2022-10-19T13:03:04;102388.63;;;17.02;56.23
15314;BME280;7757;52.626;4.746;2022-10-19T13:05:32;102394.19;;;17.01;56.81
15314;BME280;7757;52.626;4.746;2022-10-19T13:08:01;102387.00;;;17.08;57.00
15314;BME280;7757;52.626;4.746;2022-10-19T13:10:31;102385.38;;;16.48;57.42
15314;BME280;7757;52.626;4.746;2022-10-19T13:12:58;102372.19;;;17.04;56.88
15314;BME280;7757;52.626;4.746;2022-10-19T13:15:55;102378.44;;;17.04;56.38